sensor_id;sensor_type;location;lat;lon;timestamp;P1;durP1;ratioP1;P2;durP2;ratioP2
52067;SDS011;60237;52.338;21.228;2024-01-15T00:00:07;728.13;;;68.85;;
52067;SDS011;60237;52.338;21.228;2024-01-15T00:02:37;735.53;;;70.13;;
52067;SDS011;60237;52.338;21.228;2024-01-15T00:05:04;774.15;;;73.75;;
52067;SDS011;60237;52.338;21.228;2024-01-15T00:07:31;790.05;;;75.57;;
52067;SDS011;60237;52.338;21.228;2024-01-15T00:09:58;770.00;;;73.53;;
52067;SDS011;60237;52.338;21.228;2024-01-15T00:12:25;773.97;;;75.20;;
52067;SDS011;60237;52.338;21.228;2024-01-15T00:14:51;752.95;;;72.82;;
52067;SDS011;60237;52.338;21.228;2024-01-15T00:17:18;761.83;;;73.50;;
52067;SDS011;60237;52.338;21.228;2024-01-15T00:19:45;802.78;;;77.75;;
52067;SDS011;60237;52.338;21.228;2024-01-15T00:22:12;792.78;;;77.30;;
52067;SDS011;60237;52.338;21.228;2024-01-15T00:24:39;761.92;;;73.25;;
52067;SDS011;60237;52.338;21.228;2024-01-15T00:27:05;752.55;;;72.70;;
52067;SDS011;60237;52.338;21.228;2024-01-15T00:29:32;762.08;;;74.00;;
52067;SDS011;60237;52.338;21.228;2024-01-15T00:31:59;763.10;;;75.57;;
52067;SDS011;60237;52.338;21.228;2024-01-15T00:34:27;740.33;;;73.13;;
52067;SDS011;60237;52.338;21.228;2024-01-15T00:36:54;762.72;;;73.18;;
52067;SDS011;60237;52.338;21.228;2024-01-15T00:39:21;737.67;;;71.00;;
52067;SDS011;60237;52.338;21.228;2024-01-15T00:41:47;766.60;;;72.38;;
52067;SDS011;60237;52.338;21.228;2024-01-15T00:44:14;756.80;;;73.43;;
52067;SDS011;60237;52.338;21.228;2024-01-15T00:46:45;738.47;;;71.68;;
52067;SDS011;60237;52.338;21.228;2024-01-15T00:49:12;764.70;;;73.93;;
52067;SDS011;60237;52.338;21.228;2024-01-15T00:51:40;790.00;;;77.35;;
52067;SDS011;60237;52.338;21.228;2024-01-15T00:54:07;766.13;;;73.97;;
52067;SDS011;60237;52.338;21.228;2024-01-15T00:56:33;787.58;;;76.78;;
52067;SDS011;60237;52.338;21.228;2024-01-15T00:59:00;759.88;;;72.78;;
52067;SDS011;60237;52.338;21.228;2024-01-15T01:01:27;735.58;;;70.95;;
52067;SDS011;60237;52.338;21.228;2024-01-15T01:03:54;726.38;;;69.20;;
52067;SDS011;60237;52.338;21.228;2024-01-15T01:06:21;724.42;;;69.53;;
52067;SDS011;60237;52.338;21.228;2024-01-15T01:08:47;713.20;;;66.53;;
52067;SDS011;60237;52.338;21.228;2024-01-15T01:11:17;744.90;;;70.53;;
52067;SDS011;60237;52.338;21.228;2024-01-15T01:13:44;746.10;;;71.07;;
52067;SDS011;60237;52.338;21.228;2024-01-15T01:16:10;730.00;;;70.32;;
52067;SDS011;60237;52.338;21.228;2024-01-15T01:18:37;746.50;;;70.80;;
52067;SDS011;60237;52.338;21.228;2024-01-15T01:21:04;745.17;;;71.05;;
52067;SDS011;60237;52.338;21.228;2024-01-15T01:23:31;743.53;;;71.68;;
52067;SDS011;60237;52.338;21.228;2024-01-15T01:25:58;695.25;;;66.70;;
52067;SDS011;60237;52.338;21.228;2024-01-15T01:28:26;757.08;;;74.75;;
52067;SDS011;60237;52.338;21.228;2024-01-15T01:30:52;740.42;;;71.85;;
52067;SDS011;60237;52.338;21.228;2024-01-15T01:33:19;789.85;;;76.43;;
52067;SDS011;60237;52.338;21.228;2024-01-15T01:35:46;785.10;;;75.65;;
52067;SDS011;60237;52.338;21.228;2024-01-15T01:38:13;780.10;;;75.80;;
52067;SDS011;60237;52.338;21.228;2024-01-15T01:40:40;754.83;;;73.32;;
52067;SDS011;60237;52.338;21.228;2024-01-15T01:43:08;776.28;;;76.28;;
52067;SDS011;60237;52.338;21.228;2024-01-15T01:45:35;745.80;;;71.35;;
52067;SDS011;60237;52.338;21.228;2024-01-15T01:48:02;699.22;;;67.55;;
52067;SDS011;60237;52.338;21.228;2024-01-15T01:50:29;735.55;;;71.18;;
52067;SDS011;60237;52.338;21.228;2024-01-15T01:52:58;767.42;;;74.95;;
52067;SDS011;60237;52.338;21.228;2024-01-15T01:55:26;780.83;;;76.55;;
52067;SDS011;60237;52.338;21.228;2024-01-15T01:57:53;763.20;;;74.47;;
52067;SDS011;60237;52.338;21.228;2024-01-15T02:03:09;769.10;;;74.47;;
52067;SDS011;60237;52.338;21.228;2024-01-15T02:05:36;753.75;;;72.65;;
52067;SDS011;60237;52.338;21.228;2024-01-15T02:08:03;769.88;;;75.55;;
52067;SDS011;60237;52.338;21.228;2024-01-15T02:10:30;758.78;;;73.93;;
52067;SDS011;60237;52.338;21.228;2024-01-15T02:12:57;827.28;;;81.55;;
52067;SDS011;60237;52.338;21.228;2024-01-15T02:15:24;731.83;;;70.97;;
52067;SDS011;60237;52.338;21.228;2024-01-15T02:18:00;845.78;;;85.45;;
52067;SDS011;60237;52.338;21.228;2024-01-15T02:20:28;798.38;;;78.68;;
52067;SDS011;60237;52.338;21.228;2024-01-15T02:23:07;838.97;;;82.45;;
52067;SDS011;60237;52.338;21.228;2024-01-15T02:25:35;849.17;;;83.30;;
52067;SDS011;60237;52.338;21.228;2024-01-15T02:28:02;798.97;;;78.80;;
52067;SDS011;60237;52.338;21.228;2024-01-15T02:30:29;793.83;;;78.93;;
52067;SDS011;60237;52.338;21.228;2024-01-15T02:32:56;870.90;;;87.60;;
52067;SDS011;60237;52.338;21.228;2024-01-15T02:35:23;792.70;;;78.30;;
52067;SDS011;60237;52.338;21.228;2024-01-15T02:37:50;772.25;;;76.88;;
52067;SDS011;60237;52.338;21.228;2024-01-15T02:40:17;949.03;;;96.85;;
52067;SDS011;60237;52.338;21.228;2024-01-15T02:42:43;826.50;;;82.38;;
52067;SDS011;60237;52.338;21.228;2024-01-15T02:45:10;808.72;;;80.85;;
52067;SDS011;60237;52.338;21.228;2024-01-15T02:47:37;845.50;;;84.70;;
52067;SDS011;60237;52.338;21.228;2024-01-15T02:50:04;778.60;;;78.00;;
52067;SDS011;60237;52.338;21.228;2024-01-15T02:52:31;816.25;;;81.15;;
52067;SDS011;60237;52.338;21.228;2024-01-15T02:54:58;815.67;;;80.45;;
52067;SDS011;60237;52.338;21.228;2024-01-15T02:57:24;837.47;;;83.05;;
52067;SDS011;60237;52.338;21.228;2024-01-15T02:59:51;781.50;;;77.72;;
52067;SDS011;60237;52.338;21.228;2024-01-15T03:02:18;929.47;;;94.82;;
52067;SDS011;60237;52.338;21.228;2024-01-15T03:04:44;855.42;;;86.05;;
52067;SDS011;60237;52.338;21.228;2024-01-15T03:07:11;812.72;;;80.80;;
52067;SDS011;60237;52.338;21.228;2024-01-15T03:09:38;871.70;;;85.57;;
52067;SDS011;60237;52.338;21.228;2024-01-15T03:12:05;784.17;;;77.45;;
52067;SDS011;60237;52.338;21.228;2024-01-15T03:14:32;780.15;;;77.68;;
52067;SDS011;60237;52.338;21.228;2024-01-15T03:16:58;819.63;;;81.10;;
52067;SDS011;60237;52.338;21.228;2024-01-15T03:19:27;726.05;;;70.63;;
52067;SDS011;60237;52.338;21.228;2024-01-15T03:21:54;761.40;;;74.47;;
52067;SDS011;60237;52.338;21.228;2024-01-15T03:24:21;900.03;;;90.88;;
52067;SDS011;60237;52.338;21.228;2024-01-15T03:26:48;807.78;;;79.45;;
52067;SDS011;60237;52.338;21.228;2024-01-15T03:29:15;778.13;;;77.07;;
52067;SDS011;60237;52.338;21.228;2024-01-15T03:31:42;849.38;;;84.07;;
52067;SDS011;60237;52.338;21.228;2024-01-15T03:34:08;806.03;;;80.35;;
52067;SDS011;60237;52.338;21.228;2024-01-15T03:36:35;756.45;;;74.78;;
52067;SDS011;60237;52.338;21.228;2024-01-15T03:39:02;768.42;;;75.78;;
52067;SDS011;60237;52.338;21.228;2024-01-15T03:41:29;775.47;;;76.88;;
52067;SDS011;60237;52.338;21.228;2024-01-15T03:43:55;781.53;;;77.38;;
52067;SDS011;60237;52.338;21.228;2024-01-15T03:46:22;883.30;;;89.80;;
52067;SDS011;60237;52.338;21.228;2024-01-15T03:48:49;776.95;;;76.65;;
52067;SDS011;60237;52.338;21.228;2024-01-15T03:51:17;796.38;;;79.00;;
52067;SDS011;60237;52.338;21.228;2024-01-15T03:53:44;863.22;;;86.35;;
52067;SDS011;60237;52.338;21.228;2024-01-15T03:56:10;844.38;;;83.78;;
52067;SDS011;60237;52.338;21.228;2024-01-15T03:58:37;770.45;;;77.28;;
52067;SDS011;60237;52.338;21.228;2024-01-15T04:01:07;779.78;;;76.70;;
52067;SDS011;60237;52.338;21.228;2024-01-15T04:03:34;822.28;;;81.53;;
52067;SDS011;60237;52.338;21.228;2024-01-15T04:06:01;717.47;;;70.18;;
52067;SDS011;60237;52.338;21.228;2024-01-15T04:08:27;741.13;;;72.88;;
52067;SDS011;60237;52.338;21.228;2024-01-15T04:10:54;750.50;;;73.38;;
52067;SDS011;60237;52.338;21.228;2024-01-15T04:13:21;752.28;;;73.88;;
52067;SDS011;60237;52.338;21.228;2024-01-15T04:15:48;768.80;;;75.68;;
52067;SDS011;60237;52.338;21.228;2024-01-15T04:18:16;709.15;;;67.55;;
52067;SDS011;60237;52.338;21.228;2024-01-15T04:20:42;715.47;;;70.63;;
52067;SDS011;60237;52.338;21.228;2024-01-15T04:23:09;785.90;;;77.72;;
52067;SDS011;60237;52.338;21.228;2024-01-15T04:25:36;758.05;;;75.75;;
52067;SDS011;60237;52.338;21.228;2024-01-15T04:28:03;748.58;;;74.25;;
52067;SDS011;60237;52.338;21.228;2024-01-15T04:30:31;769.50;;;77.93;;
52067;SDS011;60237;52.338;21.228;2024-01-15T04:32:57;805.92;;;81.25;;
52067;SDS011;60237;52.338;21.228;2024-01-15T04:35:24;757.88;;;76.20;;
52067;SDS011;60237;52.338;21.228;2024-01-15T04:37:51;742.55;;;73.15;;
52067;SDS011;60237;52.338;21.228;2024-01-15T04:40:18;837.22;;;84.13;;
52067;SDS011;60237;52.338;21.228;2024-01-15T04:42:45;741.03;;;72.05;;
52067;SDS011;60237;52.338;21.228;2024-01-15T04:45:12;797.60;;;79.80;;
52067;SDS011;60237;52.338;21.228;2024-01-15T04:47:39;716.25;;;71.05;;
52067;SDS011;60237;52.338;21.228;2024-01-15T04:50:06;737.35;;;71.80;;
52067;SDS011;60237;52.338;21.228;2024-01-15T04:52:33;715.78;;;69.95;;
52067;SDS011;60237;52.338;21.228;2024-01-15T04:55:00;756.25;;;74.50;;
52067;SDS011;60237;52.338;21.228;2024-01-15T04:57:27;709.03;;;68.85;;
52067;SDS011;60237;52.338;21.228;2024-01-15T04:59:53;704.85;;;69.13;;
52067;SDS011;60237;52.338;21.228;2024-01-15T05:02:20;740.75;;;70.60;;
52067;SDS011;60237;52.338;21.228;2024-01-15T05:04:46;719.05;;;70.13;;
52067;SDS011;60237;52.338;21.228;2024-01-15T05:07:13;701.85;;;69.55;;
52067;SDS011;60237;52.338;21.228;2024-01-15T05:09:40;714.55;;;70.20;;
52067;SDS011;60237;52.338;21.228;2024-01-15T05:12:06;654.50;;;62.47;;
52067;SDS011;60237;52.338;21.228;2024-01-15T05:14:33;694.28;;;66.45;;
52067;SDS011;60237;52.338;21.228;2024-01-15T05:17:00;713.53;;;68.57;;
52067;SDS011;60237;52.338;21.228;2024-01-15T05:19:27;738.92;;;72.68;;
52067;SDS011;60237;52.338;21.228;2024-01-15T05:21:53;692.88;;;67.38;;
52067;SDS011;60237;52.338;21.228;2024-01-15T05:24:21;701.42;;;68.78;;
52067;SDS011;60237;52.338;21.228;2024-01-15T05:26:47;691.53;;;66.47;;
52067;SDS011;60237;52.338;21.228;2024-01-15T05:29:14;612.78;;;59.00;;
52067;SDS011;60237;52.338;21.228;2024-01-15T05:31:41;634.15;;;60.20;;
52067;SDS011;60237;52.338;21.228;2024-01-15T05:34:07;668.33;;;63.95;;
52067;SDS011;60237;52.338;21.228;2024-01-15T05:36:35;656.53;;;63.20;;
52067;SDS011;60237;52.338;21.228;2024-01-15T05:39:02;746.28;;;72.30;;
52067;SDS011;60237;52.338;21.228;2024-01-15T05:41:29;695.97;;;67.35;;
52067;SDS011;60237;52.338;21.228;2024-01-15T05:43:56;694.92;;;67.38;;
52067;SDS011;60237;52.338;21.228;2024-01-15T05:46:22;759.70;;;73.78;;
52067;SDS011;60237;52.338;21.228;2024-01-15T05:48:49;703.67;;;67.18;;
52067;SDS011;60237;52.338;21.228;2024-01-15T05:51:16;624.40;;;58.95;;
52067;SDS011;60237;52.338;21.228;2024-01-15T05:53:43;495.67;;;46.38;;
52067;SDS011;60237;52.338;21.228;2024-01-15T05:56:10;695.65;;;67.40;;
52067;SDS011;60237;52.338;21.228;2024-01-15T05:58:38;647.35;;;63.45;;
52067;SDS011;60237;52.338;21.228;2024-01-15T06:01:05;613.83;;;58.10;;
52067;SDS011;60237;52.338;21.228;2024-01-15T06:03:34;640.65;;;61.60;;
52067;SDS011;60237;52.338;21.228;2024-01-15T06:06:00;587.70;;;55.28;;
52067;SDS011;60237;52.338;21.228;2024-01-15T06:08:27;560.20;;;51.10;;
52067;SDS011;60237;52.338;21.228;2024-01-15T06:10:55;647.70;;;61.58;;
52067;SDS011;60237;52.338;21.228;2024-01-15T06:13:26;649.90;;;61.40;;
52067;SDS011;60237;52.338;21.228;2024-01-15T06:15:52;566.72;;;52.85;;
52067;SDS011;60237;52.338;21.228;2024-01-15T06:18:19;547.92;;;52.50;;
52067;SDS011;60237;52.338;21.228;2024-01-15T06:20:46;601.30;;;56.17;;
52067;SDS011;60237;52.338;21.228;2024-01-15T06:23:13;398.15;;;38.42;;
52067;SDS011;60237;52.338;21.228;2024-01-15T06:28:36;329.98;;;31.20;;
52067;SDS011;60237;52.338;21.228;2024-01-15T06:31:03;707.47;;;69.35;;
52067;SDS011;60237;52.338;21.228;2024-01-15T06:33:30;539.05;;;49.78;;
52067;SDS011;60237;52.338;21.228;2024-01-15T06:35:57;616.70;;;58.58;;
52067;SDS011;60237;52.338;21.228;2024-01-15T06:38:23;566.05;;;53.88;;
52067;SDS011;60237;52.338;21.228;2024-01-15T06:40:51;551.20;;;52.80;;
52067;SDS011;60237;52.338;21.228;2024-01-15T06:43:19;692.55;;;66.45;;
52067;SDS011;60237;52.338;21.228;2024-01-15T06:45:46;676.10;;;63.63;;
52067;SDS011;60237;52.338;21.228;2024-01-15T06:48:22;627.97;;;58.17;;
52067;SDS011;60237;52.338;21.228;2024-01-15T06:50:49;697.63;;;65.97;;
52067;SDS011;60237;52.338;21.228;2024-01-15T06:53:16;586.03;;;54.95;;
52067;SDS011;60237;52.338;21.228;2024-01-15T06:55:42;638.78;;;60.15;;
52067;SDS011;60237;52.338;21.228;2024-01-15T06:58:09;608.70;;;56.67;;
52067;SDS011;60237;52.338;21.228;2024-01-15T07:00:36;648.10;;;61.22;;
52067;SDS011;60237;52.338;21.228;2024-01-15T07:03:02;707.00;;;67.88;;
52067;SDS011;60237;52.338;21.228;2024-01-15T07:05:29;695.75;;;65.80;;
52067;SDS011;60237;52.338;21.228;2024-01-15T07:07:57;672.17;;;64.10;;
52067;SDS011;60237;52.338;21.228;2024-01-15T07:10:24;756.95;;;74.22;;
52067;SDS011;60237;52.338;21.228;2024-01-15T07:12:50;674.50;;;63.75;;
52067;SDS011;60237;52.338;21.228;2024-01-15T07:15:17;569.67;;;52.92;;
52067;SDS011;60237;52.338;21.228;2024-01-15T07:17:44;634.17;;;61.28;;
52067;SDS011;60237;52.338;21.228;2024-01-15T07:20:11;603.08;;;57.63;;
52067;SDS011;60237;52.338;21.228;2024-01-15T07:22:38;631.17;;;60.20;;
52067;SDS011;60237;52.338;21.228;2024-01-15T07:25:04;627.78;;;60.55;;
52067;SDS011;60237;52.338;21.228;2024-01-15T07:27:32;639.70;;;62.33;;
52067;SDS011;60237;52.338;21.228;2024-01-15T07:29:59;600.35;;;57.08;;
52067;SDS011;60237;52.338;21.228;2024-01-15T07:32:28;644.67;;;63.10;;
52067;SDS011;60237;52.338;21.228;2024-01-15T07:34:55;622.05;;;60.17;;
52067;SDS011;60237;52.338;21.228;2024-01-15T07:37:22;570.42;;;54.60;;
52067;SDS011;60237;52.338;21.228;2024-01-15T07:39:50;626.55;;;59.53;;
52067;SDS011;60237;52.338;21.228;2024-01-15T07:42:16;706.25;;;69.10;;
52067;SDS011;60237;52.338;21.228;2024-01-15T07:44:43;645.35;;;61.95;;
52067;SDS011;60237;52.338;21.228;2024-01-15T07:47:11;708.88;;;69.90;;
52067;SDS011;60237;52.338;21.228;2024-01-15T07:49:38;703.95;;;68.03;;
52067;SDS011;60237;52.338;21.228;2024-01-15T07:52:05;701.20;;;67.78;;
52067;SDS011;60237;52.338;21.228;2024-01-15T07:54:32;669.75;;;64.10;;
52067;SDS011;60237;52.338;21.228;2024-01-15T07:56:59;761.47;;;75.93;;
52067;SDS011;60237;52.338;21.228;2024-01-15T07:59:26;635.55;;;61.35;;
52067;SDS011;60237;52.338;21.228;2024-01-15T08:01:53;695.03;;;67.35;;
52067;SDS011;60237;52.338;21.228;2024-01-15T08:04:20;745.17;;;73.88;;
52067;SDS011;60237;52.338;21.228;2024-01-15T08:06:47;736.88;;;72.47;;
52067;SDS011;60237;52.338;21.228;2024-01-15T08:09:13;707.15;;;68.90;;
52067;SDS011;60237;52.338;21.228;2024-01-15T08:11:40;498.92;;;47.25;;
52067;SDS011;60237;52.338;21.228;2024-01-15T08:14:10;706.05;;;68.60;;
52067;SDS011;60237;52.338;21.228;2024-01-15T08:16:37;693.92;;;66.78;;
52067;SDS011;60237;52.338;21.228;2024-01-15T08:19:04;739.53;;;71.10;;
52067;SDS011;60237;52.338;21.228;2024-01-15T08:21:32;751.13;;;72.25;;
52067;SDS011;60237;52.338;21.228;2024-01-15T08:23:59;739.33;;;71.28;;
52067;SDS011;60237;52.338;21.228;2024-01-15T08:26:26;789.45;;;75.95;;
52067;SDS011;60237;52.338;21.228;2024-01-15T08:28:53;852.65;;;84.63;;
52067;SDS011;60237;52.338;21.228;2024-01-15T08:31:19;741.20;;;71.78;;
52067;SDS011;60237;52.338;21.228;2024-01-15T08:33:46;803.67;;;77.10;;
52067;SDS011;60237;52.338;21.228;2024-01-15T08:36:13;716.58;;;68.15;;
52067;SDS011;60237;52.338;21.228;2024-01-15T08:38:39;735.63;;;69.10;;
52067;SDS011;60237;52.338;21.228;2024-01-15T08:41:06;682.72;;;64.30;;
52067;SDS011;60237;52.338;21.228;2024-01-15T08:43:34;811.47;;;81.05;;
52067;SDS011;60237;52.338;21.228;2024-01-15T08:46:01;758.58;;;70.63;;
52067;SDS011;60237;52.338;21.228;2024-01-15T08:48:28;846.17;;;83.93;;
52067;SDS011;60237;52.338;21.228;2024-01-15T08:50:55;740.90;;;74.90;;
52067;SDS011;60237;52.338;21.228;2024-01-15T08:53:22;818.55;;;81.75;;
52067;SDS011;60237;52.338;21.228;2024-01-15T08:55:50;784.88;;;76.72;;
52067;SDS011;60237;52.338;21.228;2024-01-15T08:58:16;932.50;;;94.63;;
52067;SDS011;60237;52.338;21.228;2024-01-15T09:00:44;823.03;;;81.15;;
52067;SDS011;60237;52.338;21.228;2024-01-15T09:03:11;850.47;;;84.88;;
52067;SDS011;60237;52.338;21.228;2024-01-15T09:05:38;937.70;;;96.20;;
52067;SDS011;60237;52.338;21.228;2024-01-15T09:08:05;833.13;;;83.50;;
52067;SDS011;60237;52.338;21.228;2024-01-15T09:10:32;861.25;;;85.93;;
52067;SDS011;60237;52.338;21.228;2024-01-15T09:12:58;868.17;;;86.43;;
52067;SDS011;60237;52.338;21.228;2024-01-15T09:15:26;919.83;;;93.00;;
52067;SDS011;60237;52.338;21.228;2024-01-15T09:17:54;818.22;;;79.70;;
52067;SDS011;60237;52.338;21.228;2024-01-15T09:20:21;852.50;;;84.38;;
52067;SDS011;60237;52.338;21.228;2024-01-15T09:22:47;802.20;;;78.75;;
52067;SDS011;60237;52.338;21.228;2024-01-15T09:25:14;761.67;;;74.38;;
52067;SDS011;60237;52.338;21.228;2024-01-15T09:30:34;264.25;;;24.17;;
52067;SDS011;60237;52.338;21.228;2024-01-15T09:40:23;468.17;;;40.42;;
52067;SDS011;60237;52.338;21.228;2024-01-15T09:42:54;572.25;;;51.50;;
52067;SDS011;60237;52.338;21.228;2024-01-15T09:45:23;434.85;;;37.30;;
52067;SDS011;60237;52.338;21.228;2024-01-15T09:48:24;592.25;;;54.30;;
52067;SDS011;60237;52.338;21.228;2024-01-15T09:51:15;424.92;;;36.08;;
52067;SDS011;60237;52.338;21.228;2024-01-15T09:54:15;429.00;;;37.13;;
52067;SDS011;60237;52.338;21.228;2024-01-15T09:57:25;716.45;;;69.00;;
52067;SDS011;60237;52.338;21.228;2024-01-15T10:00:10;685.97;;;63.55;;
52067;SDS011;60237;52.338;21.228;2024-01-15T10:02:47;703.42;;;65.82;;
52067;SDS011;60237;52.338;21.228;2024-01-15T10:05:17;626.25;;;57.17;;
52067;SDS011;60237;52.338;21.228;2024-01-15T10:07:47;698.80;;;64.68;;
52067;SDS011;60237;52.338;21.228;2024-01-15T10:10:29;716.90;;;65.28;;
52067;SDS011;60237;52.338;21.228;2024-01-15T10:13:07;704.58;;;66.30;;
52067;SDS011;60237;52.338;21.228;2024-01-15T10:18:28;737.58;;;68.50;;
52067;SDS011;60237;52.338;21.228;2024-01-15T10:21:20;565.22;;;50.80;;
52067;SDS011;60237;52.338;21.228;2024-01-15T10:23:54;423.60;;;37.40;;
52067;SDS011;60237;52.338;21.228;2024-01-15T10:30:29;499.63;;;42.70;;
52067;SDS011;60237;52.338;21.228;2024-01-15T10:37:14;511.00;;;44.38;;
52067;SDS011;60237;52.338;21.228;2024-01-15T10:40:10;429.45;;;36.63;;
52067;SDS011;60237;52.338;21.228;2024-01-15T10:43:19;616.67;;;54.95;;
52067;SDS011;60237;52.338;21.228;2024-01-15T10:46:05;703.03;;;63.78;;
52067;SDS011;60237;52.338;21.228;2024-01-15T10:48:41;688.28;;;63.40;;
52067;SDS011;60237;52.338;21.228;2024-01-15T10:51:42;726.20;;;66.43;;
52067;SDS011;60237;52.338;21.228;2024-01-15T10:54:28;687.38;;;61.55;;
52067;SDS011;60237;52.338;21.228;2024-01-15T10:57:05;619.30;;;54.78;;
52067;SDS011;60237;52.338;21.228;2024-01-15T10:59:32;635.47;;;56.45;;
52067;SDS011;60237;52.338;21.228;2024-01-15T11:02:07;590.60;;;50.03;;
52067;SDS011;60237;52.338;21.228;2024-01-15T11:08:37;530.05;;;45.15;;
52067;SDS011;60237;52.338;21.228;2024-01-15T11:11:36;537.17;;;45.90;;
52067;SDS011;60237;52.338;21.228;2024-01-15T11:14:40;687.78;;;62.80;;
52067;SDS011;60237;52.338;21.228;2024-01-15T11:17:17;708.67;;;64.40;;
52067;SDS011;60237;52.338;21.228;2024-01-15T11:20:31;696.67;;;63.58;;
52067;SDS011;60237;52.338;21.228;2024-01-15T11:23:01;712.20;;;66.38;;
52067;SDS011;60237;52.338;21.228;2024-01-15T11:25:34;762.05;;;71.38;;
52067;SDS011;60237;52.338;21.228;2024-01-15T11:28:06;655.92;;;60.72;;
52067;SDS011;60237;52.338;21.228;2024-01-15T11:30:36;684.28;;;62.92;;
52067;SDS011;60237;52.338;21.228;2024-01-15T11:33:03;740.58;;;69.45;;
52067;SDS011;60237;52.338;21.228;2024-01-15T11:35:48;668.95;;;61.05;;
52067;SDS011;60237;52.338;21.228;2024-01-15T11:41:47;656.42;;;58.58;;
52067;SDS011;60237;52.338;21.228;2024-01-15T11:44:31;711.63;;;65.18;;
52067;SDS011;60237;52.338;21.228;2024-01-15T11:47:12;652.60;;;60.20;;
52067;SDS011;60237;52.338;21.228;2024-01-15T11:50:00;654.72;;;59.70;;
52067;SDS011;60237;52.338;21.228;2024-01-15T11:52:56;695.17;;;65.93;;
52067;SDS011;60237;52.338;21.228;2024-01-15T11:55:35;789.80;;;75.38;;
52067;SDS011;60237;52.338;21.228;2024-01-15T16:32:22;837.00;;;76.90;;
52067;SDS011;60237;52.338;21.228;2024-01-15T17:07:13;687.67;;;63.35;;
52067;SDS011;60237;52.338;21.228;2024-01-15T17:22:02;392.02;;;32.53;;
52067;SDS011;60237;52.338;21.228;2024-01-15T17:32:24;671.40;;;59.83;;
52067;SDS011;60237;52.338;21.228;2024-01-15T17:34:54;688.08;;;61.92;;
52067;SDS011;60237;52.338;21.228;2024-01-15T17:37:31;738.40;;;66.18;;
52067;SDS011;60237;52.338;21.228;2024-01-15T17:40:05;515.58;;;42.60;;
52067;SDS011;60237;52.338;21.228;2024-01-15T17:42:33;665.70;;;59.83;;
52067;SDS011;60237;52.338;21.228;2024-01-15T17:45:00;739.65;;;65.75;;
52067;SDS011;60237;52.338;21.228;2024-01-15T18:28:27;592.77;;;50.70;;
52067;SDS011;60237;52.338;21.228;2024-01-15T19:15:21;624.75;;;51.45;;
52067;SDS011;60237;52.338;21.228;2024-01-15T20:10:21;735.53;;;66.75;;
52067;SDS011;60237;52.338;21.228;2024-01-15T20:12:55;674.53;;;63.03;;
52067;SDS011;60237;52.338;21.228;2024-01-15T20:38:03;1035.43;;;95.45;;
52067;SDS011;60237;52.338;21.228;2024-01-15T20:40:30;1049.55;;;98.53;;
52067;SDS011;60237;52.338;21.228;2024-01-15T20:43:00;954.67;;;86.50;;
52067;SDS011;60237;52.338;21.228;2024-01-15T20:45:30;1057.85;;;101.82;;
52067;SDS011;60237;52.338;21.228;2024-01-15T20:47:59;1437.80;;;144.73;;
52067;SDS011;60237;52.338;21.228;2024-01-15T20:50:32;980.05;;;89.20;;
52067;SDS011;60237;52.338;21.228;2024-01-15T20:52:59;999.45;;;91.45;;
52067;SDS011;60237;52.338;21.228;2024-01-15T20:58:22;937.88;;;83.90;;
52067;SDS011;60237;52.338;21.228;2024-01-15T21:01:07;1095.60;;;101.38;;
52067;SDS011;60237;52.338;21.228;2024-01-15T21:03:37;1083.25;;;100.10;;
52067;SDS011;60237;52.338;21.228;2024-01-15T21:06:04;977.63;;;89.82;;
52067;SDS011;60237;52.338;21.228;2024-01-15T21:08:31;981.60;;;89.00;;
52067;SDS011;60237;52.338;21.228;2024-01-15T21:10:58;1070.60;;;99.95;;
52067;SDS011;60237;52.338;21.228;2024-01-15T21:13:26;1013.97;;;94.20;;
52067;SDS011;60237;52.338;21.228;2024-01-15T21:15:54;1024.47;;;95.80;;
52067;SDS011;60237;52.338;21.228;2024-01-15T21:18:20;1130.20;;;107.60;;
52067;SDS011;60237;52.338;21.228;2024-01-15T21:20:47;1062.50;;;98.38;;
52067;SDS011;60237;52.338;21.228;2024-01-15T21:29:14;1422.93;;;143.48;;
52067;SDS011;60237;52.338;21.228;2024-01-15T21:35:16;1096.72;;;102.53;;
52067;SDS011;60237;52.338;21.228;2024-01-15T21:40:42;702.35;;;58.42;;
